TRA81U EHRD-LFBE
Flight info
| Callsign | TRA81U |
|---|---|
| Flight time | 1h 20m |
| Altitude | 37000 |
| Route | WOODY N872 CIV DCT KOVIN DCT DUCRA DCT RESMI DCT DEKOD DCT DISAK DCT DIRMO DCT ARTAX DCT BEBIX DCT LMG A34 BUGUS |
| Aircraft | B738/M-SDE2E3FGHIRWXY/LB1 |
Departure
| Time | 2026-04-20 15:09 |
|---|---|
| Airport | Rotterdam The Hague Airport (EHRD) |
Arrival
| Time | 2026-04-20 16:30 |
|---|---|
| Airport | Bergerac Dordogne-Périgord airport (LFBE) |
| Time | Latitude | Longitude | Altitude | Speed | Heading |
|---|---|---|---|---|---|
| 2026-04-20 14:48 | 51.95165 | 4.43350 | 0 ft | 0 kts | 327° |
| 2026-04-20 15:07 | 51.95190 | 4.43299 | 0 ft | 10 kts | 280° |
| 2026-04-20 15:07 | 51.95143 | 4.43134 | 1 ft | 23 kts | 244° |
| 2026-04-20 15:08 | 51.95125 | 4.42937 | 1 ft | 10 kts | 312° |
| 2026-04-20 15:08 | 51.95176 | 4.42886 | 0 ft | 0 kts | 328° |
| 2026-04-20 15:08 | 51.95187 | 4.42877 | 1 ft | 9 kts | 336° |
| 2026-04-20 15:08 | 51.95287 | 4.43018 | 0 ft | 50 kts | 57° |
| 2026-04-20 15:09 | 51.95646 | 4.43904 | 2 ft | 134 kts | 54° |
| 2026-04-20 15:09 | 51.96219 | 4.45321 | 499 ft | 168 kts | 53° |
| 2026-04-20 15:09 | 51.96849 | 4.46953 | 1689 ft | 160 kts | 57° |
| 2026-04-20 15:09 | 51.97323 | 4.48293 | 2725 ft | 162 kts | 58° |
| 2026-04-20 15:10 | 51.97910 | 4.49988 | 3232 ft | 190 kts | 59° |
| 2026-04-20 15:10 | 51.98581 | 4.51988 | 3570 ft | 216 kts | 61° |
| 2026-04-20 15:10 | 51.99287 | 4.54253 | 4000 ft | 234 kts | 62° |
| 2026-04-20 15:10 | 51.99961 | 4.56762 | 4519 ft | 250 kts | 76° |
| 2026-04-20 15:11 | 51.99948 | 4.59611 | 5428 ft | 257 kts | 103° |
| 2026-04-20 15:11 | 51.99143 | 4.62209 | 6433 ft | 264 kts | 128° |
| 2026-04-20 15:11 | 51.97688 | 4.64076 | 7324 ft | 271 kts | 149° |
| 2026-04-20 15:11 | 51.96000 | 4.65483 | 8246 ft | 275 kts | 151° |
| 2026-04-20 15:12 | 51.94171 | 4.66460 | 9104 ft | 283 kts | 174° |
| 2026-04-20 15:12 | 51.92217 | 4.66000 | 10013 ft | 290 kts | 202° |
| 2026-04-20 15:12 | 51.90586 | 4.64059 | 10723 ft | 300 kts | 229° |
| 2026-04-20 15:12 | 51.89312 | 4.61220 | 10991 ft | 325 kts | 236° |
| 2026-04-20 15:13 | 51.88017 | 4.58110 | 11461 ft | 339 kts | 232° |
| 2026-04-20 15:13 | 51.86243 | 4.55578 | 12192 ft | 344 kts | 208° |
| 2026-04-20 15:13 | 51.83998 | 4.54243 | 13059 ft | 346 kts | 195° |
| 2026-04-20 15:13 | 51.81640 | 4.53251 | 13795 ft | 353 kts | 194° |
| 2026-04-20 15:14 | 51.79240 | 4.52307 | 14536 ft | 357 kts | 194° |
| 2026-04-20 15:14 | 51.76818 | 4.51359 | 15289 ft | 360 kts | 194° |
| 2026-04-20 15:14 | 51.74377 | 4.50393 | 16018 ft | 363 kts | 194° |
| 2026-04-20 15:14 | 51.71913 | 4.49402 | 16752 ft | 366 kts | 195° |
| 2026-04-20 15:15 | 51.69462 | 4.48406 | 17460 ft | 370 kts | 195° |
| 2026-04-20 15:15 | 51.66950 | 4.47378 | 18174 ft | 374 kts | 195° |
| 2026-04-20 15:15 | 51.64415 | 4.46337 | 18835 ft | 378 kts | 195° |
| 2026-04-20 15:15 | 51.61859 | 4.45288 | 19468 ft | 381 kts | 195° |
| 2026-04-20 15:16 | 51.59284 | 4.44231 | 20106 ft | 383 kts | 195° |
| 2026-04-20 15:16 | 51.56690 | 4.43168 | 20727 ft | 387 kts | 195° |
| 2026-04-20 15:16 | 51.54074 | 4.42097 | 21333 ft | 390 kts | 195° |
| 2026-04-20 15:16 | 51.51436 | 4.41018 | 21938 ft | 393 kts | 195° |
| 2026-04-20 15:17 | 51.48773 | 4.39930 | 22524 ft | 396 kts | 195° |
| 2026-04-20 15:17 | 51.46094 | 4.38837 | 23105 ft | 399 kts | 195° |
| 2026-04-20 15:17 | 51.43390 | 4.37736 | 23687 ft | 403 kts | 195° |
| 2026-04-20 15:17 | 51.40666 | 4.36610 | 24152 ft | 406 kts | 198° |
| 2026-04-20 15:18 | 51.38031 | 4.34977 | 24581 ft | 407 kts | 207° |
| 2026-04-20 15:18 | 51.35487 | 4.32960 | 25056 ft | 409 kts | 210° |
| 2026-04-20 15:18 | 51.32935 | 4.30925 | 25509 ft | 412 kts | 209° |
| 2026-04-20 15:18 | 51.30346 | 4.28924 | 25937 ft | 415 kts | 209° |
| 2026-04-20 15:19 | 51.27736 | 4.26929 | 26378 ft | 417 kts | 209° |
| 2026-04-20 15:19 | 51.25107 | 4.24930 | 26804 ft | 420 kts | 210° |
| 2026-04-20 15:19 | 51.22463 | 4.22922 | 27229 ft | 422 kts | 210° |
| 2026-04-20 15:19 | 51.19802 | 4.20903 | 27644 ft | 425 kts | 210° |
| 2026-04-20 15:20 | 51.18145 | 4.19646 | 27905 ft | 426 kts | 210° |
| 2026-04-20 15:20 | 51.15412 | 4.17685 | 28305 ft | 431 kts | 206° |
| 2026-04-20 15:20 | 51.12577 | 4.16051 | 28695 ft | 435 kts | 204° |
| 2026-04-20 15:20 | 51.09695 | 4.14519 | 29068 ft | 438 kts | 204° |
| 2026-04-20 15:21 | 51.06791 | 4.13001 | 29444 ft | 441 kts | 204° |
| 2026-04-20 15:21 | 51.03874 | 4.11460 | 29790 ft | 443 kts | 204° |
| 2026-04-20 15:21 | 51.00949 | 4.09891 | 30148 ft | 445 kts | 205° |
| 2026-04-20 15:21 | 50.98011 | 4.08299 | 30447 ft | 447 kts | 205° |
| 2026-04-20 15:22 | 50.95065 | 4.06694 | 30734 ft | 449 kts | 206° |
| 2026-04-20 15:22 | 50.92110 | 4.05085 | 31042 ft | 449 kts | 206° |
| 2026-04-20 15:22 | 50.89154 | 4.03481 | 31432 ft | 448 kts | 206° |
| 2026-04-20 15:22 | 50.86230 | 4.01827 | 31859 ft | 444 kts | 208° |
| 2026-04-20 15:23 | 50.83368 | 4.00035 | 32275 ft | 441 kts | 210° |
| 2026-04-20 15:23 | 50.80536 | 3.98183 | 32633 ft | 440 kts | 210° |
| 2026-04-20 15:23 | 50.77712 | 3.96324 | 33012 ft | 439 kts | 210° |
| 2026-04-20 15:23 | 50.74895 | 3.94483 | 33407 ft | 438 kts | 210° |
| 2026-04-20 15:24 | 50.72083 | 3.92665 | 33787 ft | 437 kts | 210° |
| 2026-04-20 15:24 | 50.69271 | 3.90861 | 34146 ft | 436 kts | 210° |
| 2026-04-20 15:24 | 50.66500 | 3.89091 | 34445 ft | 435 kts | 209° |
| 2026-04-20 15:24 | 50.63693 | 3.87303 | 34691 ft | 436 kts | 209° |
| 2026-04-20 15:25 | 50.60881 | 3.85513 | 34933 ft | 436 kts | 209° |
| 2026-04-20 15:25 | 50.58069 | 3.83727 | 35190 ft | 436 kts | 209° |
| 2026-04-20 15:25 | 50.55273 | 3.81915 | 35446 ft | 435 kts | 210° |
| 2026-04-20 15:25 | 50.52493 | 3.80036 | 35684 ft | 434 kts | 210° |
| 2026-04-20 15:26 | 50.49726 | 3.78131 | 35915 ft | 435 kts | 210° |
| 2026-04-20 15:26 | 50.46956 | 3.76218 | 36149 ft | 435 kts | 210° |
| 2026-04-20 15:26 | 50.44187 | 3.74311 | 36368 ft | 435 kts | 210° |
| 2026-04-20 15:26 | 50.41414 | 3.72410 | 36578 ft | 436 kts | 209° |
| 2026-04-20 15:27 | 50.38635 | 3.70513 | 36805 ft | 436 kts | 209° |
| 2026-04-20 15:27 | 50.35855 | 3.68623 | 37014 ft | 436 kts | 209° |
| 2026-04-20 15:27 | 50.33066 | 3.66731 | 37182 ft | 437 kts | 209° |
| 2026-04-20 15:28 | 50.27446 | 3.62928 | 37188 ft | 441 kts | 209° |
| 2026-04-20 15:28 | 50.21840 | 3.59151 | 37179 ft | 436 kts | 209° |
| 2026-04-20 15:29 | 50.16274 | 3.55407 | 37182 ft | 435 kts | 209° |
| 2026-04-20 15:29 | 50.10729 | 3.51684 | 37170 ft | 434 kts | 209° |
| 2026-04-20 15:30 | 50.05190 | 3.47974 | 37182 ft | 433 kts | 209° |
| 2026-04-20 15:30 | 49.99645 | 3.44269 | 37182 ft | 435 kts | 209° |
| 2026-04-20 15:31 | 49.94073 | 3.40554 | 37181 ft | 437 kts | 209° |
| 2026-04-20 15:31 | 49.88469 | 3.36829 | 37184 ft | 440 kts | 209° |
| 2026-04-20 15:32 | 49.82827 | 3.33090 | 37177 ft | 442 kts | 209° |
| 2026-04-20 15:32 | 49.77157 | 3.29341 | 37182 ft | 444 kts | 209° |
| 2026-04-20 15:33 | 49.71458 | 3.25582 | 37172 ft | 446 kts | 209° |
| 2026-04-20 15:33 | 49.65747 | 3.21826 | 37173 ft | 446 kts | 209° |
| 2026-04-20 15:34 | 49.60070 | 3.18101 | 37169 ft | 446 kts | 209° |
| 2026-04-20 15:34 | 49.54365 | 3.14366 | 37166 ft | 445 kts | 209° |
| 2026-04-20 15:35 | 49.48695 | 3.10601 | 37159 ft | 441 kts | 213° |
| 2026-04-20 15:35 | 49.43573 | 3.05680 | 37167 ft | 432 kts | 220° |
| 2026-04-20 15:36 | 49.38603 | 3.00527 | 37170 ft | 430 kts | 220° |
| 2026-04-20 15:36 | 49.33635 | 2.95433 | 37163 ft | 429 kts | 219° |
| 2026-04-20 15:37 | 49.28660 | 2.90395 | 37168 ft | 428 kts | 219° |
| 2026-04-20 15:37 | 49.24498 | 2.86200 | 37162 ft | 427 kts | 219° |
| 2026-04-20 15:38 | 49.18982 | 2.80657 | 37158 ft | 427 kts | 219° |
| 2026-04-20 15:38 | 49.14019 | 2.75679 | 37158 ft | 427 kts | 219° |
| 2026-04-20 15:39 | 49.09048 | 2.70706 | 37157 ft | 427 kts | 219° |
| 2026-04-20 15:39 | 49.04074 | 2.65740 | 37159 ft | 428 kts | 219° |
| 2026-04-20 15:40 | 48.99091 | 2.60777 | 37151 ft | 428 kts | 218° |
| 2026-04-20 15:40 | 48.94102 | 2.55823 | 37157 ft | 428 kts | 218° |
| 2026-04-20 15:41 | 48.89106 | 2.50869 | 37161 ft | 429 kts | 218° |
| 2026-04-20 15:41 | 48.84132 | 2.45948 | 37152 ft | 429 kts | 218° |
| 2026-04-20 15:42 | 48.79122 | 2.41002 | 37131 ft | 430 kts | 218° |
| 2026-04-20 15:42 | 48.74110 | 2.36066 | 37130 ft | 429 kts | 218° |
| 2026-04-20 15:43 | 48.69102 | 2.31144 | 37130 ft | 429 kts | 218° |
| 2026-04-20 15:43 | 48.64094 | 2.26233 | 37128 ft | 429 kts | 218° |
| 2026-04-20 15:44 | 48.59081 | 2.21352 | 37131 ft | 429 kts | 216° |
| 2026-04-20 15:44 | 48.53496 | 2.17931 | 37124 ft | 441 kts | 198° |
| 2026-04-20 15:45 | 48.47473 | 2.16061 | 37122 ft | 442 kts | 197° |
| 2026-04-20 15:45 | 48.41452 | 2.14217 | 37111 ft | 441 kts | 197° |
| 2026-04-20 15:46 | 48.35463 | 2.12301 | 37119 ft | 440 kts | 198° |
| 2026-04-20 15:46 | 48.30483 | 2.10729 | 37111 ft | 442 kts | 194° |
| 2026-04-20 15:47 | 48.24273 | 2.10654 | 37109 ft | 454 kts | 176° |
| 2026-04-20 15:47 | 48.18022 | 2.12168 | 37102 ft | 455 kts | 176° |
| 2026-04-20 15:48 | 48.11767 | 2.13422 | 37096 ft | 451 kts | 182° |
| 2026-04-20 15:48 | 48.05523 | 2.13823 | 37100 ft | 449 kts | 184° |
| 2026-04-20 15:49 | 47.99276 | 2.14080 | 37102 ft | 449 kts | 184° |
| 2026-04-20 15:49 | 47.93027 | 2.14388 | 37102 ft | 450 kts | 184° |
| 2026-04-20 15:50 | 47.86771 | 2.14741 | 37099 ft | 450 kts | 184° |
| 2026-04-20 15:50 | 47.80511 | 2.15106 | 37103 ft | 450 kts | 184° |
| 2026-04-20 15:51 | 47.74245 | 2.15471 | 37098 ft | 451 kts | 184° |
| 2026-04-20 15:51 | 47.67980 | 2.15833 | 37087 ft | 451 kts | 184° |
| 2026-04-20 15:52 | 47.61708 | 2.16195 | 37082 ft | 451 kts | 184° |
| 2026-04-20 15:52 | 47.55479 | 2.16553 | 37071 ft | 451 kts | 184° |
| 2026-04-20 15:53 | 47.46070 | 2.17091 | 37059 ft | 451 kts | 184° |
| 2026-04-20 15:53 | 47.39795 | 2.17449 | 37063 ft | 451 kts | 184° |
| 2026-04-20 15:54 | 47.33524 | 2.17806 | 37057 ft | 451 kts | 184° |
| 2026-04-20 15:54 | 47.27257 | 2.18162 | 37057 ft | 450 kts | 184° |
| 2026-04-20 15:55 | 47.20993 | 2.18517 | 37048 ft | 450 kts | 184° |
| 2026-04-20 15:55 | 47.14742 | 2.18871 | 37048 ft | 449 kts | 184° |
| 2026-04-20 15:56 | 47.08537 | 2.18706 | 37044 ft | 440 kts | 195° |
| 2026-04-20 15:56 | 47.02744 | 2.16288 | 37051 ft | 431 kts | 205° |
| 2026-04-20 15:57 | 46.97093 | 2.13381 | 37042 ft | 431 kts | 205° |
| 2026-04-20 15:57 | 46.91429 | 2.10508 | 37044 ft | 431 kts | 205° |
| 2026-04-20 15:58 | 46.85773 | 2.07688 | 37030 ft | 427 kts | 205° |
| 2026-04-20 15:58 | 46.80175 | 2.04919 | 37035 ft | 424 kts | 205° |
| 2026-04-20 15:59 | 46.77382 | 2.03538 | 36843 ft | 425 kts | 205° |
| 2026-04-20 15:59 | 46.74631 | 2.02180 | 36582 ft | 419 kts | 205° |
| 2026-04-20 15:59 | 46.71883 | 2.00828 | 36175 ft | 415 kts | 205° |
| 2026-04-20 15:59 | 46.69164 | 1.99491 | 35840 ft | 410 kts | 205° |
| 2026-04-20 16:00 | 46.66470 | 1.98166 | 35436 ft | 408 kts | 205° |
| 2026-04-20 16:00 | 46.63793 | 1.96849 | 35057 ft | 404 kts | 206° |
| 2026-04-20 16:00 | 46.61136 | 1.95543 | 34682 ft | 402 kts | 206° |
| 2026-04-20 16:00 | 46.58497 | 1.94247 | 34317 ft | 399 kts | 206° |
| 2026-04-20 16:01 | 46.55872 | 1.92960 | 33918 ft | 397 kts | 206° |
| 2026-04-20 16:01 | 46.53264 | 1.91682 | 33488 ft | 394 kts | 208° |
| 2026-04-20 16:01 | 46.50676 | 1.90416 | 33116 ft | 391 kts | 206° |
| 2026-04-20 16:01 | 46.48111 | 1.89163 | 32735 ft | 388 kts | 206° |
| 2026-04-20 16:02 | 46.45564 | 1.87919 | 32375 ft | 385 kts | 206° |
| 2026-04-20 16:02 | 46.43039 | 1.86686 | 32012 ft | 382 kts | 206° |
| 2026-04-20 16:02 | 46.40530 | 1.85463 | 31651 ft | 379 kts | 206° |
| 2026-04-20 16:02 | 46.38035 | 1.84247 | 31299 ft | 377 kts | 206° |
| 2026-04-20 16:03 | 46.35560 | 1.83042 | 30940 ft | 374 kts | 206° |
| 2026-04-20 16:03 | 46.33101 | 1.81845 | 30603 ft | 372 kts | 206° |
| 2026-04-20 16:03 | 46.30655 | 1.80657 | 30260 ft | 370 kts | 206° |
| 2026-04-20 16:03 | 46.28225 | 1.79478 | 29883 ft | 367 kts | 207° |
| 2026-04-20 16:04 | 46.25930 | 1.78006 | 29519 ft | 355 kts | 217° |
| 2026-04-20 16:04 | 46.23912 | 1.76059 | 29138 ft | 343 kts | 227° |
| 2026-04-20 16:04 | 46.22112 | 1.73840 | 28816 ft | 338 kts | 228° |
| 2026-04-20 16:04 | 46.20348 | 1.71613 | 28459 ft | 335 kts | 228° |
| 2026-04-20 16:05 | 46.18605 | 1.69409 | 28095 ft | 332 kts | 228° |
| 2026-04-20 16:05 | 46.16872 | 1.67226 | 27765 ft | 329 kts | 228° |
| 2026-04-20 16:05 | 46.15148 | 1.65066 | 27421 ft | 327 kts | 228° |
| 2026-04-20 16:05 | 46.13436 | 1.62930 | 27082 ft | 325 kts | 227° |
| 2026-04-20 16:06 | 46.11733 | 1.60811 | 26748 ft | 322 kts | 227° |
| 2026-04-20 16:06 | 46.10040 | 1.58709 | 26410 ft | 320 kts | 227° |
| 2026-04-20 16:06 | 46.08354 | 1.56618 | 26084 ft | 319 kts | 227° |
| 2026-04-20 16:06 | 46.06671 | 1.54532 | 25747 ft | 319 kts | 227° |
| 2026-04-20 16:07 | 46.04986 | 1.52445 | 25432 ft | 322 kts | 227° |
| 2026-04-20 16:07 | 46.03264 | 1.50310 | 25102 ft | 332 kts | 227° |
| 2026-04-20 16:07 | 46.01501 | 1.48130 | 24748 ft | 335 kts | 227° |
| 2026-04-20 16:07 | 45.99738 | 1.45958 | 24395 ft | 333 kts | 227° |
| 2026-04-20 16:08 | 45.97984 | 1.43800 | 24050 ft | 331 kts | 227° |
| 2026-04-20 16:08 | 45.96252 | 1.41638 | 23709 ft | 327 kts | 230° |
| 2026-04-20 16:08 | 45.94768 | 1.39214 | 23343 ft | 320 kts | 239° |
| 2026-04-20 16:08 | 45.93617 | 1.36529 | 22963 ft | 313 kts | 247° |
| 2026-04-20 16:09 | 45.92635 | 1.33764 | 22627 ft | 309 kts | 248° |
| 2026-04-20 16:09 | 45.91677 | 1.31014 | 22291 ft | 306 kts | 248° |
| 2026-04-20 16:09 | 45.90726 | 1.28289 | 21979 ft | 304 kts | 248° |
| 2026-04-20 16:09 | 45.89780 | 1.25595 | 21652 ft | 301 kts | 248° |
| 2026-04-20 16:10 | 45.88837 | 1.22920 | 21325 ft | 299 kts | 248° |
| 2026-04-20 16:10 | 45.87898 | 1.20269 | 21012 ft | 297 kts | 248° |
| 2026-04-20 16:10 | 45.86964 | 1.17638 | 20694 ft | 295 kts | 248° |
| 2026-04-20 16:10 | 45.86037 | 1.15031 | 20379 ft | 293 kts | 248° |
| 2026-04-20 16:11 | 45.85112 | 1.12432 | 20067 ft | 292 kts | 248° |
| 2026-04-20 16:11 | 45.84189 | 1.09848 | 19740 ft | 291 kts | 248° |
| 2026-04-20 16:11 | 45.83270 | 1.07276 | 19428 ft | 289 kts | 247° |
| 2026-04-20 16:11 | 45.82167 | 1.04850 | 19080 ft | 296 kts | 230° |
| 2026-04-20 16:12 | 45.80477 | 1.03114 | 18797 ft | 305 kts | 212° |
| 2026-04-20 16:12 | 45.78414 | 1.02279 | 18507 ft | 315 kts | 192° |
| 2026-04-20 16:12 | 45.76225 | 1.02042 | 18207 ft | 316 kts | 189° |
| 2026-04-20 16:12 | 45.74028 | 1.01891 | 17843 ft | 316 kts | 189° |
| 2026-04-20 16:13 | 45.71836 | 1.01754 | 17512 ft | 314 kts | 188° |
| 2026-04-20 16:13 | 45.69656 | 1.01608 | 17185 ft | 313 kts | 188° |
| 2026-04-20 16:13 | 45.67482 | 1.01453 | 16851 ft | 312 kts | 189° |
| 2026-04-20 16:13 | 45.65320 | 1.01290 | 16544 ft | 311 kts | 189° |
| 2026-04-20 16:14 | 45.63164 | 1.01122 | 16222 ft | 309 kts | 188° |
| 2026-04-20 16:14 | 45.61018 | 1.00953 | 15917 ft | 308 kts | 188° |
| 2026-04-20 16:14 | 45.58879 | 1.00782 | 15591 ft | 307 kts | 188° |
| 2026-04-20 16:14 | 45.56751 | 1.00612 | 15290 ft | 305 kts | 188° |
| 2026-04-20 16:15 | 45.54661 | 1.00444 | 14980 ft | 305 kts | 188° |
| 2026-04-20 16:15 | 45.52545 | 1.00276 | 14669 ft | 304 kts | 188° |
| 2026-04-20 16:15 | 45.50436 | 1.00106 | 14354 ft | 303 kts | 188° |
| 2026-04-20 16:15 | 45.48335 | 0.99932 | 14058 ft | 302 kts | 188° |
| 2026-04-20 16:16 | 45.46241 | 0.99758 | 13748 ft | 302 kts | 188° |
| 2026-04-20 16:16 | 45.44145 | 0.99582 | 13398 ft | 301 kts | 188° |
| 2026-04-20 16:16 | 45.42054 | 0.99408 | 13070 ft | 301 kts | 188° |
| 2026-04-20 16:16 | 45.39969 | 0.99235 | 12747 ft | 300 kts | 187° |
| 2026-04-20 16:17 | 45.37890 | 0.99063 | 12427 ft | 299 kts | 187° |
| 2026-04-20 16:17 | 45.35822 | 0.98890 | 12122 ft | 297 kts | 187° |
| 2026-04-20 16:17 | 45.33763 | 0.98721 | 11808 ft | 296 kts | 187° |
| 2026-04-20 16:17 | 45.31712 | 0.98552 | 11495 ft | 295 kts | 187° |
| 2026-04-20 16:18 | 45.29671 | 0.98383 | 11208 ft | 293 kts | 187° |
| 2026-04-20 16:18 | 45.27634 | 0.98214 | 10887 ft | 292 kts | 187° |
| 2026-04-20 16:18 | 45.25609 | 0.98047 | 10590 ft | 291 kts | 187° |
| 2026-04-20 16:18 | 45.23588 | 0.97882 | 10281 ft | 290 kts | 187° |
| 2026-04-20 16:19 | 45.21577 | 0.97712 | 10035 ft | 288 kts | 187° |
| 2026-04-20 16:19 | 45.19594 | 0.97548 | 9850 ft | 283 kts | 186° |
| 2026-04-20 16:19 | 45.17626 | 0.97387 | 9534 ft | 283 kts | 186° |
| 2026-04-20 16:19 | 45.15663 | 0.97226 | 9243 ft | 282 kts | 186° |
| 2026-04-20 16:20 | 45.13706 | 0.97066 | 8957 ft | 282 kts | 186° |
| 2026-04-20 16:20 | 45.11746 | 0.96903 | 8653 ft | 282 kts | 186° |
| 2026-04-20 16:20 | 45.09784 | 0.96760 | 8351 ft | 282 kts | 185° |
| 2026-04-20 16:20 | 45.07824 | 0.96629 | 8057 ft | 282 kts | 185° |
| 2026-04-20 16:21 | 45.05870 | 0.96499 | 7797 ft | 281 kts | 185° |
| 2026-04-20 16:21 | 45.03918 | 0.96369 | 7479 ft | 281 kts | 185° |
| 2026-04-20 16:21 | 45.01970 | 0.96235 | 7231 ft | 279 kts | 184° |
| 2026-04-20 16:21 | 45.00047 | 0.95988 | 6940 ft | 277 kts | 196° |
| 2026-04-20 16:22 | 44.98295 | 0.94887 | 6595 ft | 277 kts | 211° |
| 2026-04-20 16:22 | 44.96598 | 0.93561 | 6194 ft | 281 kts | 211° |
| 2026-04-20 16:22 | 44.94878 | 0.92218 | 5770 ft | 284 kts | 210° |
| 2026-04-20 16:22 | 44.93143 | 0.90871 | 5360 ft | 286 kts | 210° |
| 2026-04-20 16:23 | 44.91394 | 0.89515 | 4955 ft | 287 kts | 210° |
| 2026-04-20 16:23 | 44.89676 | 0.88194 | 5033 ft | 268 kts | 210° |
| 2026-04-20 16:23 | 44.88084 | 0.86977 | 4914 ft | 254 kts | 210° |
| 2026-04-20 16:23 | 44.86604 | 0.85840 | 4776 ft | 231 kts | 210° |
| 2026-04-20 16:24 | 44.85257 | 0.84809 | 4616 ft | 211 kts | 210° |
| 2026-04-20 16:24 | 44.84015 | 0.83870 | 4493 ft | 194 kts | 210° |
| 2026-04-20 16:24 | 44.82863 | 0.82989 | 4310 ft | 185 kts | 211° |
| 2026-04-20 16:24 | 44.81772 | 0.82064 | 3993 ft | 182 kts | 226° |
| 2026-04-20 16:25 | 44.81306 | 0.80547 | 3895 ft | 167 kts | 269° |
| 2026-04-20 16:25 | 44.81272 | 0.78858 | 3661 ft | 176 kts | 267° |
| 2026-04-20 16:25 | 44.81215 | 0.77102 | 3362 ft | 183 kts | 271° |
| 2026-04-20 16:25 | 44.81238 | 0.75380 | 3112 ft | 176 kts | 275° |
| 2026-04-20 16:26 | 44.81298 | 0.73690 | 2937 ft | 171 kts | 275° |
| 2026-04-20 16:26 | 44.81365 | 0.72011 | 2713 ft | 167 kts | 276° |
| 2026-04-20 16:26 | 44.81472 | 0.70409 | 2555 ft | 159 kts | 276° |
| 2026-04-20 16:26 | 44.81549 | 0.68853 | 2337 ft | 156 kts | 275° |
| 2026-04-20 16:27 | 44.81633 | 0.67311 | 2088 ft | 161 kts | 277° |
| 2026-04-20 16:27 | 44.81720 | 0.65768 | 1837 ft | 154 kts | 276° |
| 2026-04-20 16:27 | 44.81788 | 0.64280 | 1641 ft | 154 kts | 277° |
| 2026-04-20 16:27 | 44.81873 | 0.62797 | 1490 ft | 154 kts | 276° |
| 2026-04-20 16:28 | 44.81971 | 0.61252 | 1298 ft | 161 kts | 278° |
| 2026-04-20 16:28 | 44.82057 | 0.59688 | 1086 ft | 160 kts | 275° |
| 2026-04-20 16:28 | 44.82124 | 0.58123 | 832 ft | 159 kts | 276° |
| 2026-04-20 16:28 | 44.82210 | 0.56641 | 673 ft | 145 kts | 276° |
| 2026-04-20 16:29 | 44.82283 | 0.55237 | 503 ft | 144 kts | 275° |
| 2026-04-20 16:29 | 44.82354 | 0.53850 | 301 ft | 144 kts | 275° |
| 2026-04-20 16:29 | 44.82424 | 0.52482 | 179 ft | 131 kts | 275° |
| 2026-04-20 16:29 | 44.82475 | 0.51470 | 180 ft | 71 kts | 274° |
| 2026-04-20 16:30 | 44.82500 | 0.50988 | 181 ft | 32 kts | 274° |
| 2026-04-20 16:30 | 44.82511 | 0.50768 | 179 ft | 20 kts | 274° |
| 2026-04-20 16:30 | 44.82432 | 0.50661 | 178 ft | 18 kts | 183° |
| 2026-04-20 16:30 | 44.82351 | 0.50745 | 179 ft | 18 kts | 94° |
| 2026-04-20 16:31 | 44.82342 | 0.50915 | 180 ft | 17 kts | 95° |
| 2026-04-20 16:31 | 44.82332 | 0.51086 | 178 ft | 18 kts | 95° |
| 2026-04-20 16:31 | 44.82322 | 0.51254 | 178 ft | 17 kts | 94° |
| 2026-04-20 16:31 | 44.82317 | 0.51416 | 178 ft | 16 kts | 95° |
| 2026-04-20 16:32 | 44.82307 | 0.51566 | 178 ft | 13 kts | 94° |
| 2026-04-20 16:32 | 44.82303 | 0.51633 | 178 ft | 4 kts | 99° |
| 2026-04-20 16:32 | 44.82281 | 0.51659 | 178 ft | 6 kts | 166° |
| 2026-04-20 16:32 | 44.82261 | 0.51636 | 178 ft | 3 kts | 275° |
| 2026-04-20 16:33 | 44.82271 | 0.51614 | 178 ft | 0 kts | 312° |